Time;durP1;ratioP1;P1;durP2;ratioP2;P2;SDS_P1;SDS_P2;PMS_P1;PMS_P2;Temp;Humidity;BMP_temperature;BMP_pressure;BME280_temperature;BME280_humidity;BME280_pressure;Samples;Min_cycle;Max_cycle;Signal;HPM_P1;HPM_P2
2021/04/15 00:01:54;;;;;;;30.73;17.90;;;0.60;99.90;;;;;;5013221;28;20022;-74
2021/04/15 00:04:21;;;;;;;29.65;18.25;;;0.60;99.90;;;;;;4995016;28;20384;-75
2021/04/15 00:06:47;;;;;;;30.30;19.25;;;0.50;99.90;;;;;;5013204;28;20109;-75
2021/04/15 00:09:16;;;;;;;31.38;19.30;;;0.50;99.90;;;;;;5012763;28;20678;-75
2021/04/15 00:11:42;;;;;;;33.25;19.85;;;0.50;99.90;;;;;;5013160;28;20037;-75
2021/04/15 00:14:11;;;;;;;31.48;18.80;;;0.50;99.90;;;;;;5012322;28;20491;-75
2021/04/15 00:16:37;;;;;;;35.28;21.63;;;0.50;99.90;;;;;;5012948;28;20104;-75
2021/04/15 00:19:04;;;;;;;35.17;20.75;;;0.50;99.90;;;;;;5012875;28;20097;-74
2021/04/15 00:21:29;;;;;;;35.70;21.40;;;0.50;99.90;;;;;;4997535;28;20061;-75
2021/04/15 00:23:55;;;;;;;42.03;23.83;;;0.50;99.90;;;;;;5017747;28;20466;-74
2021/04/15 00:26:23;;;;;;;36.58;23.15;;;0.60;99.90;;;;;;5020273;28;20029;-75
2021/04/15 00:28:50;;;;;;;37.30;22.58;;;0.60;99.90;;;;;;4999351;28;20021;-75
2021/04/15 00:31:16;;;;;;;38.05;23.15;;;0.60;99.90;;;;;;5015509;28;20022;-74
2021/04/15 00:33:42;;;;;;;43.67;24.02;;;0.60;99.90;;;;;;5017685;28;20034;-75
2021/04/15 00:36:08;;;;;;;37.67;23.52;;;0.60;99.90;;;;;;5017681;28;20030;-74
2021/04/15 00:38:34;;;;;;;38.10;22.52;;;0.60;99.90;;;;;;5015093;28;20076;-74
2021/04/15 00:41:00;;;;;;;38.22;22.77;;;0.60;99.90;;;;;;5014407;28;20029;-74
2021/04/15 00:43:30;;;;;;;37.17;22.42;;;0.60;99.90;;;;;;5012182;28;20026;-74
2021/04/15 00:45:57;;;;;;;35.20;22.25;;;0.60;99.90;;;;;;5013396;28;20064;-74
2021/04/15 00:48:38;;;;;;;35.90;21.33;;;0.50;99.90;;;;;;5012885;28;20026;-74
2021/04/15 00:51:04;;;;;;;38.03;21.27;;;0.50;99.90;;;;;;5012762;28;20053;-74
2021/04/15 00:53:51;;;;;;;36.13;22.80;;;0.50;99.90;;;;;;5011702;28;20065;-74
2021/04/15 00:56:18;;;;;;;39.72;22.02;;;0.50;99.90;;;;;;5012339;28;20053;-74
2021/04/15 00:58:45;;;;;;;43.00;23.33;;;0.40;99.90;;;;;;5012404;28;20022;-74
2021/04/15 01:01:11;;;;;;;35.65;22.38;;;0.40;99.90;;;;;;5012146;28;20029;-74
2021/04/15 01:03:37;;;;;;;43.38;22.65;;;0.30;99.90;;;;;;5011795;28;20026;-75
2021/04/15 01:06:05;;;;;;;35.55;21.85;;;0.30;99.90;;;;;;5012357;28;20037;-74
2021/04/15 01:08:32;;;;;;;43.40;23.73;;;0.20;99.90;;;;;;4993735;28;20081;-75
2021/04/15 01:11:06;;;;;;;36.63;23.85;;;0.10;99.90;;;;;;5012360;28;20392;-74
2021/04/15 01:13:46;;;;;;;34.92;22.50;;;0.20;99.90;;;;;;5011182;28;20383;-73
2021/04/15 01:16:20;;;;;;;38.28;23.38;;;0.20;99.90;;;;;;5012098;28;20017;-74
2021/04/15 01:18:59;;;;;;;37.90;23.77;;;0.20;99.90;;;;;;5011836;28;20061;-74
2021/04/15 01:21:45;;;;;;;37.38;23.02;;;0.20;99.90;;;;;;5012081;28;20014;-74
2021/04/15 01:24:31;;;;;;;39.92;23.20;;;0.20;99.90;;;;;;5009623;28;20022;-73
2021/04/15 01:27:17;;;;;;;43.45;23.70;;;0.20;99.90;;;;;;5010751;28;20030;-74
2021/04/15 01:30:22;;;;;;;39.88;22.48;;;0.30;99.90;;;;;;5011976;28;20480;-74
2021/04/15 01:33:00;;;;;;;35.80;22.17;;;0.10;99.90;;;;;;4993890;28;20575;-74
2021/04/15 01:35:38;;;;;;;32.13;21.55;;;0.10;99.90;;;;;;5011600;28;20032;-74
2021/04/15 01:38:12;;;;;;;37.85;20.73;;;0.10;99.90;;;;;;5030171;23;20597;-72
2021/04/15 01:40:46;;;;;;;35.42;22.05;;;-0.10;99.90;;;;;;5044236;28;20061;-72
2021/04/15 01:43:32;;;;;;;38.03;22.55;;;-0.10;99.90;;;;;;5038490;28;20032;-72
2021/04/15 01:45:58;;;;;;;42.42;24.95;;;-0.10;99.90;;;;;;5051363;28;20103;-71
2021/04/15 01:48:38;;;;;;;46.70;26.10;;;-0.10;99.90;;;;;;5057997;28;20093;-72
2021/04/15 01:51:14;;;;;;;44.22;25.58;;;-0.10;99.90;;;;;;5071442;28;20028;-71
2021/04/15 01:53:51;;;;;;;43.85;24.80;;;-0.10;99.90;;;;;;5070643;28;20020;-72
2021/04/15 01:56:32;;;;;;;38.85;23.17;;;-0.20;99.90;;;;;;5071620;28;20033;-72
2021/04/15 01:59:05;;;;;;;40.72;23.52;;;-0.20;99.90;;;;;;5053613;28;20028;-72
2021/04/15 02:01:40;;;;;;;40.67;22.75;;;-0.20;99.90;;;;;;5071280;28;20502;-70
2021/04/15 02:04:37;;;;;;;40.75;23.35;;;-0.30;99.90;;;;;;5070744;28;20031;-72
2021/04/15 02:07:16;;;;;;;41.72;23.67;;;-0.30;99.90;;;;;;5053478;28;20044;-72
2021/04/15 02:09:45;;;;;;;40.17;22.90;;;-0.30;99.90;;;;;;5071005;28;20020;-71
2021/04/15 02:12:16;;;;;;;38.78;23.00;;;-0.40;99.90;;;;;;5053100;28;20025;-72
2021/04/15 02:14:45;;;;;;;39.58;23.65;;;-0.30;99.90;;;;;;5050358;28;20029;-72
2021/04/15 02:17:13;;;;;;;41.17;24.15;;;-0.40;99.90;;;;;;5051285;28;20051;-71
2021/04/15 02:19:50;;;;;;;44.38;24.52;;;-0.40;99.90;;;;;;5052482;28;20017;-72
2021/04/15 02:22:19;;;;;;;37.45;22.20;;;-0.40;99.90;;;;;;5055072;28;20096;-73
2021/04/15 02:24:53;;;;;;;41.47;23.42;;;-0.40;99.90;;;;;;5054017;28;20028;-72
2021/04/15 02:27:30;;;;;;;44.30;22.60;;;-0.40;99.90;;;;;;5055181;28;20025;-72
2021/04/15 02:30:04;;;;;;;40.80;24.95;;;-0.50;99.90;;;;;;5053162;28;20036;-71
2021/04/15 02:32:39;;;;;;;41.80;23.90;;;-0.10;99.90;;;;;;5055466;28;20021;-71
2021/04/15 02:35:29;;;;;;;40.90;24.17;;;-0.40;99.90;;;;;;5054533;28;20017;-70
2021/04/15 02:37:59;;;;;;;45.25;25.30;;;-0.50;99.90;;;;;;5059941;28;20029;-71
2021/04/15 02:40:32;;;;;;;46.67;25.95;;;-0.60;99.90;;;;;;5075235;28;20080;-71
2021/04/15 02:43:07;;;;;;;41.17;24.02;;;-0.60;99.90;;;;;;5074109;28;20033;-71
2021/04/15 02:45:41;;;;;;;45.20;25.42;;;-0.60;99.90;;;;;;5074635;28;20020;-71
2021/04/15 02:48:13;;;;;;;42.60;24.27;;;-0.70;99.90;;;;;;5074734;28;20016;-71
2021/04/15 02:50:40;;;;;;;46.70;26.20;;;-0.60;99.90;;;;;;5074486;28;20035;-71
2021/04/15 02:53:26;;;;;;;48.13;27.33;;;-0.70;99.90;;;;;;5073578;28;20115;-72
2021/04/15 02:56:03;;;;;;;46.17;25.55;;;-0.70;99.90;;;;;;5074288;28;20024;-70
2021/04/15 02:58:38;;;;;;;45.78;24.98;;;-0.70;99.90;;;;;;5075057;28;20025;-71
2021/04/15 03:01:06;;;;;;;50.30;26.50;;;-0.70;99.90;;;;;;5078743;28;20054;-73
2021/04/15 03:03:36;;;;;;;45.80;25.15;;;-0.80;99.90;;;;;;5056007;28;20534;-72
2021/04/15 03:06:11;;;;;;;49.10;25.35;;;-0.80;99.90;;;;;;5074154;28;20021;-70
2021/04/15 03:08:39;;;;;;;53.85;27.95;;;-0.90;99.90;;;;;;5074173;28;20485;-71
2021/04/15 03:11:11;;;;;;;55.17;28.42;;;-0.90;99.90;;;;;;5074185;28;20035;-71
2021/04/15 03:13:42;;;;;;;;;;;-0.90;99.90;;;;;;5073933;28;20081;-71
2021/04/15 03:16:07;;;;;;;46.53;24.50;;;-0.90;99.90;;;;;;5075800;28;19930;-71
2021/04/15 03:18:36;;;;;;;51.60;28.75;;;-1.00;99.90;;;;;;5073924;28;20025;-71
2021/04/15 03:21:12;;;;;;;57.28;30.55;;;-1.00;99.90;;;;;;5074837;28;20028;-71
2021/04/15 03:23:57;;;;;;;60.15;31.38;;;-0.90;99.90;;;;;;5073077;28;20031;-72
2021/04/15 03:26:35;;;;;;;62.05;32.60;;;-0.90;99.90;;;;;;5073888;28;20020;-73
2021/04/15 03:29:23;;;;;;;60.30;33.95;;;-1.00;99.90;;;;;;5073733;28;20024;-72
2021/04/15 03:32:24;;;;;;;64.07;33.30;;;-1.00;99.90;;;;;;5073298;28;20033;-70
2021/04/15 03:35:18;;;;;;;61.47;33.08;;;-1.00;99.90;;;;;;5073153;28;20021;-70
2021/04/15 03:37:58;;;;;;;70.88;34.95;;;-1.00;99.90;;;;;;5073642;28;20753;-69
2021/04/15 03:40:26;;;;;;;59.70;32.97;;;-1.10;99.90;;;;;;5035442;28;20041;-72
2021/04/15 03:42:58;;;;;;;63.88;34.17;;;-1.20;99.90;;;;;;5058436;28;20052;-70
2021/04/15 03:45:39;;;;;;;70.82;37.03;;;-1.10;99.90;;;;;;5077433;28;20553;-71
2021/04/15 03:48:09;;;;;;;64.97;34.75;;;-1.10;99.90;;;;;;5083875;28;20056;-71
2021/04/15 03:51:06;;;;;;;62.25;32.15;;;-1.20;99.90;;;;;;5084868;28;20093;-71
2021/04/15 03:53:36;;;;;;;55.50;28.70;;;-1.20;99.90;;;;;;5088039;28;20029;-71
2021/04/15 03:56:07;;;;;;;54.63;29.50;;;-1.20;99.90;;;;;;5086103;28;20032;-71
2021/04/15 03:58:48;;;;;;;35.10;20.67;;;-1.20;99.90;;;;;;5074202;28;20032;-73
2021/04/15 04:01:27;;;;;;;51.00;27.52;;;-1.20;99.90;;;;;;5073348;28;20031;-70
2021/04/15 04:04:19;;;;;;;51.88;28.67;;;-1.20;99.90;;;;;;5072457;28;20020;-70
2021/04/15 04:06:49;;;;;;;52.88;28.90;;;-1.20;99.90;;;;;;5073001;28;20033;-71
2021/04/15 04:09:21;;;;;;;52.63;29.27;;;-1.20;99.90;;;;;;5072661;28;20025;-72
2021/04/15 04:11:50;;;;;;;58.85;30.30;;;-1.30;99.90;;;;;;5072901;28;20036;-71
2021/04/15 04:14:27;;;;;;;54.00;28.67;;;-1.30;99.90;;;;;;5072109;28;20028;-72
2021/04/15 04:17:14;;;;;;;58.17;30.63;;;-1.30;99.90;;;;;;5072730;28;20497;-71
2021/04/15 04:19:49;;;;;;;50.03;28.48;;;-1.40;99.90;;;;;;5054784;28;20028;-71
2021/04/15 04:22:18;;;;;;;53.08;28.55;;;-1.40;99.90;;;;;;5072834;28;20029;-72
2021/04/15 04:24:53;;;;;;;53.15;28.38;;;-1.40;99.90;;;;;;5053754;28;20032;-72
2021/04/15 04:27:25;;;;;;;59.08;28.70;;;-1.40;99.90;;;;;;5072797;28;20024;-72
2021/04/15 04:29:56;;;;;;;;;;;-1.50;99.90;;;;;;5072765;28;20389;-69
2021/04/15 04:32:25;;;;;;;60.50;29.45;;;-1.50;99.90;;;;;;5072555;28;20423;-72
2021/04/15 04:34:55;;;;;;;60.22;30.88;;;-1.50;99.90;;;;;;5053846;28;20025;-70
2021/04/15 04:37:25;;;;;;;56.70;30.08;;;-1.50;99.90;;;;;;5063972;28;20031;-71
2021/04/15 04:39:51;;;;;;;55.58;29.85;;;-1.50;99.90;;;;;;5065681;28;20070;-70
2021/04/15 04:42:23;;;;;;;54.00;29.60;;;-1.40;99.90;;;;;;5061771;28;20036;-71
2021/04/15 04:44:48;;;;;;;;;;;-1.40;99.90;;;;;;5070411;28;20348;-71
2021/04/15 04:47:55;;;;;;;54.42;27.40;;;-1.40;99.90;;;;;;5074066;28;19915;-71
2021/04/15 04:50:23;;;;;;;61.13;29.80;;;-1.40;99.90;;;;;;5071246;28;20020;-71
2021/04/15 04:53:03;;;;;;;58.97;29.35;;;-1.30;99.90;;;;;;5071976;28;20728;-70
2021/04/15 04:55:59;;;;;;;54.55;30.52;;;-1.40;99.90;;;;;;5067769;28;20494;-72
2021/04/15 04:58:24;;;;;;;59.88;31.35;;;-1.30;99.90;;;;;;5055254;28;20032;-70
2021/04/15 05:00:55;;;;;;;60.88;31.77;;;-1.30;99.90;;;;;;5055752;28;20044;-70
2021/04/15 05:03:27;;;;;;;62.22;32.85;;;-1.30;99.90;;;;;;5054761;28;20021;-71
2021/04/15 05:06:04;;;;;;;57.40;31.52;;;-1.20;99.90;;;;;;5051674;28;20040;-72
2021/04/15 05:08:58;;;;;;;65.35;32.95;;;-1.20;99.90;;;;;;5031571;28;20491;-72
2021/04/15 05:11:32;;;;;;;61.47;33.40;;;-1.10;99.90;;;;;;5050011;28;20112;-71
2021/04/15 05:13:59;;;;;;;55.75;31.60;;;-1.00;99.90;;;;;;5049608;28;20062;-71
2021/04/15 05:16:32;;;;;;;58.90;31.98;;;-1.00;99.90;;;;;;5049995;28;20112;-73
2021/04/15 05:18:58;;;;;;;57.55;32.40;;;-0.90;99.90;;;;;;5049398;28;20650;-73
2021/04/15 05:21:26;;;;;;;74.78;37.03;;;-0.70;99.90;;;;;;5050184;28;20029;-71
2021/04/15 05:24:05;;;;;;;76.53;36.75;;;-0.70;99.90;;;;;;5049224;28;20025;-71
2021/04/15 05:26:35;;;;;;;68.20;35.92;;;-0.70;99.90;;;;;;5050151;28;20730;-71
2021/04/15 05:29:04;;;;;;;71.38;37.72;;;-0.60;99.90;;;;;;5049834;28;20029;-71
2021/04/15 05:31:33;;;;;;;72.03;37.50;;;-0.30;99.90;;;;;;5052631;28;20021;-71
2021/04/15 05:34:15;;;;;;;63.45;35.00;;;-0.40;99.90;;;;;;5071223;28;20116;-71
2021/04/15 05:36:41;;;;;;;74.90;37.55;;;-0.30;99.90;;;;;;5071465;28;20032;-70
2021/04/15 05:39:10;;;;;;;73.65;37.22;;;-0.20;99.90;;;;;;5060021;28;20681;-70
2021/04/15 05:41:47;;;;;;;75.05;38.15;;;-0.30;99.90;;;;;;5050516;28;20025;-70
2021/04/15 05:44:27;;;;;;;62.88;34.58;;;-0.20;99.90;;;;;;5053024;28;20028;-69
2021/04/15 05:46:54;;;;;;;64.15;34.75;;;-0.40;99.90;;;;;;5053172;28;20785;-69
2021/04/15 05:49:27;;;;;;;60.80;35.50;;;-0.40;99.90;;;;;;5034255;28;20502;-70
2021/04/15 05:52:03;;;;;;;68.03;35.75;;;-0.40;99.90;;;;;;5052652;28;20394;-71
2021/04/15 05:54:32;;;;;;;61.83;31.92;;;-0.50;99.90;;;;;;5049274;28;20021;-71
2021/04/15 05:57:01;;;;;;;56.97;31.85;;;-0.70;99.90;;;;;;5057525;28;20064;-70
2021/04/15 05:59:41;;;;;;;62.50;32.78;;;-0.60;99.90;;;;;;5054289;28;20029;-70
2021/04/15 06:02:27;;;;;;;64.10;33.45;;;-0.40;99.90;;;;;;5053941;28;20487;-71
2021/04/15 06:05:14;;;;;;;59.50;32.75;;;-0.20;99.90;;;;;;5053336;28;20017;-70
2021/04/15 06:07:42;;;;;;;49.92;30.50;;;0.10;99.90;;;;;;5067753;28;20051;-70
2021/04/15 06:10:09;;;;;;;48.10;29.13;;;-0.10;99.90;;;;;;5072474;28;20024;-70
2021/04/15 06:12:44;;;;;;;54.63;30.90;;;0.00;99.90;;;;;;5070404;28;20026;-73
2021/04/15 06:15:34;;;;;;;54.05;30.60;;;0.20;99.90;;;;;;5054409;28;20502;-72
2021/04/15 06:18:08;;;;;;;46.83;28.58;;;0.50;99.90;;;;;;5022203;28;20582;-72
2021/04/15 06:20:38;;;;;;;40.55;25.77;;;0.60;99.90;;;;;;5053214;28;20025;-71
2021/04/15 06:23:20;;;;;;;41.80;25.15;;;0.60;99.90;;;;;;5067297;28;20035;-72
2021/04/15 06:25:48;;;;;;;39.47;24.42;;;0.60;99.90;;;;;;5072395;28;20012;-72
2021/04/15 06:28:39;;;;;;;42.55;24.85;;;0.60;99.90;;;;;;5053402;28;20040;-71
2021/04/15 06:31:16;;;;;;;39.63;23.30;;;0.80;99.90;;;;;;5072782;28;20440;-71
2021/04/15 06:33:44;;;;;;;34.33;23.63;;;1.10;99.90;;;;;;5072100;28;20035;-71
2021/04/15 06:36:40;;;;;;;48.55;26.05;;;1.40;99.90;;;;;;5073497;28;20039;-70
2021/04/15 06:39:25;;;;;;;39.65;26.60;;;1.40;99.90;;;;;;4984457;28;20370;-70
2021/04/15 06:42:12;;;;;;;43.50;24.20;;;1.50;99.90;;;;;;5064342;28;20074;-71
2021/04/15 06:44:44;;;;;;;34.92;23.17;;;1.60;99.90;;;;;;5065421;28;20078;-72
2021/04/15 06:47:42;;;;;;;33.33;23.30;;;1.60;99.90;;;;;;5054919;28;20020;-73
2021/04/15 06:50:22;;;;;;;34.10;22.17;;;1.50;99.90;;;;;;5056358;28;20024;-71
2021/04/15 06:53:09;;;;;;;35.72;22.52;;;1.50;99.90;;;;;;5072551;28;20025;-72
2021/04/15 06:55:53;;;;;;;35.05;22.50;;;1.50;99.90;;;;;;5073162;28;20046;-71
2021/04/15 06:58:37;;;;;;;33.30;22.35;;;1.50;99.90;;;;;;5073107;28;20410;-71
2021/04/15 07:01:18;;;;;;;34.58;21.88;;;1.40;99.90;;;;;;5058881;28;20021;-72
2021/04/15 07:04:02;;;;;;;34.08;21.77;;;1.40;99.90;;;;;;5052206;28;20104;-72
2021/04/15 07:06:31;;;;;;;41.97;23.60;;;1.50;99.90;;;;;;5051934;28;20031;-69
2021/04/15 07:09:18;;;;;;;33.45;21.55;;;1.40;99.90;;;;;;5062321;28;20531;-71
2021/04/15 07:12:08;;;;;;;38.75;23.48;;;1.60;99.90;;;;;;5072739;28;20037;-71
2021/04/15 07:14:51;;;;;;;39.72;23.02;;;1.80;99.90;;;;;;5072814;28;20100;-72
2021/04/15 07:17:41;;;;;;;38.13;22.90;;;1.80;99.90;;;;;;5073072;28;20024;-69
2021/04/15 07:20:33;;;;;;;41.53;23.00;;;2.10;99.90;;;;;;5072952;28;20035;-70
2021/04/15 07:23:26;;;;;;;36.47;20.95;;;2.30;99.90;;;;;;5072208;28;20039;-72
2021/04/15 07:26:31;;;;;;;33.15;20.38;;;2.30;99.90;;;;;;5072548;28;20024;-70
2021/04/15 07:29:15;;;;;;;28.10;18.60;;;2.40;99.90;;;;;;5025346;28;20087;-70
2021/04/15 07:31:41;;;;;;;30.88;20.38;;;2.50;99.90;;;;;;5074456;28;20039;-70
2021/04/15 07:34:15;;;;;;;37.15;21.05;;;2.70;99.90;;;;;;5074840;28;20021;-70
2021/04/15 07:37:13;;;;;;;29.83;20.55;;;2.80;99.90;;;;;;5075333;28;20031;-71
2021/04/15 07:40:01;;;;;;;33.33;22.20;;;2.90;99.90;;;;;;5010476;28;20090;-71
2021/04/15 07:42:55;;;;;;;30.10;21.42;;;3.00;99.90;;;;;;5040336;28;20074;-72
2021/04/15 07:45:31;;;;;;;30.90;20.05;;;3.10;99.90;;;;;;5074109;28;20087;-71
2021/04/15 07:48:34;;;;;;;29.15;19.48;;;3.30;99.90;;;;;;5073601;28;20050;-70
2021/04/15 07:51:11;;;;;;;32.90;18.55;;;3.50;99.90;;;;;;5073743;28;20090;-70
2021/04/15 07:54:07;;;;;;;25.17;16.95;;;3.70;99.90;;;;;;5056446;28;20142;-71
2021/04/15 07:56:35;;;;;;;31.42;17.05;;;3.80;99.90;;;;;;5074147;28;20032;-70
2021/04/15 07:59:37;;;;;;;24.88;15.85;;;4.00;99.90;;;;;;5073221;28;20031;-70
2021/04/15 08:02:26;;;;;;;25.15;16.15;;;4.40;99.90;;;;;;5055063;28;20027;-69
2021/04/15 08:04:57;;;;;;;22.40;15.07;;;4.40;99.90;;;;;;5074069;28;20024;-69
2021/04/15 08:07:42;;;;;;;22.35;14.90;;;4.30;99.90;;;;;;5073654;28;20024;-71
2021/04/15 08:10:26;;;;;;;18.08;14.77;;;4.50;99.90;;;;;;5072487;28;20028;-71
2021/04/15 08:13:02;;;;;;;17.38;14.60;;;5.00;99.90;;;;;;5067423;28;20056;-72
2021/04/15 08:15:49;;;;;;;18.25;14.45;;;5.50;99.90;;;;;;5035380;28;20028;-70
2021/04/15 08:19:00;;;;;;;18.55;14.32;;;5.70;99.90;;;;;;5051276;28;20048;-71
2021/04/15 08:21:41;;;;;;;20.38;18.13;;;6.00;99.90;;;;;;5056660;28;20428;-71
2021/04/15 08:24:41;;;;;;;20.40;13.60;;;7.00;99.90;;;;;;5033448;28;20491;-70
2021/04/15 08:27:30;;;;;;;16.85;13.18;;;7.10;99.90;;;;;;5064554;28;20025;-70
2021/04/15 08:30:20;;;;;;;14.77;13.00;;;7.30;99.90;;;;;;5066747;28;20473;-72
2021/04/15 08:33:07;;;;;;;21.08;13.02;;;7.70;99.90;;;;;;5068015;28;20025;-70
2021/04/15 08:35:53;;;;;;;15.95;13.40;;;7.50;99.90;;;;;;5071948;28;20027;-71
2021/04/15 08:39:09;;;;;;;14.27;12.68;;;7.30;99.90;;;;;;5070942;28;20131;-71
2021/04/15 08:41:43;;;;;;;17.25;12.35;;;7.70;99.90;;;;;;4990366;28;20793;-70
2021/04/15 08:44:21;;;;;;;14.70;11.18;;;8.10;99.90;;;;;;5064722;28;20036;-71
2021/04/15 08:46:55;;;;;;;13.75;10.13;;;8.30;99.90;;;;;;5072469;28;20044;-72
2021/04/15 08:49:32;;;;;;;11.35;9.32;;;8.60;99.90;;;;;;5072531;28;20140;-71
2021/04/15 08:52:10;;;;;;;10.23;9.23;;;8.40;99.90;;;;;;5072027;28;20016;-70
2021/04/15 08:54:55;;;;;;;11.23;9.43;;;8.90;99.90;;;;;;5071213;28;20032;-70
2021/04/15 08:57:52;;;;;;;10.77;9.38;;;9.20;99.90;;;;;;5072137;28;20020;-70
2021/04/15 09:00:39;;;;;;;9.00;8.13;;;10.70;99.90;;;;;;5072036;28;20017;-70
2021/04/15 09:03:15;;;;;;;6.60;5.38;;;10.70;98.20;;;;;;5071457;28;20066;-71
2021/04/15 09:06:10;;;;;;;6.63;4.00;;;10.40;97.10;;;;;;5073022;28;20436;-70
2021/04/15 09:08:51;;;;;;;9.13;4.55;;;10.10;93.70;;;;;;5053974;28;20123;-70
2021/04/15 09:11:26;;;;;;;5.38;4.57;;;10.20;93.90;;;;;;5071573;28;20470;-70
2021/04/15 09:14:22;;;;;;;6.85;4.53;;;10.80;93.60;;;;;;5071593;28;20032;-70
2021/04/15 09:16:59;;;;;;;7.05;4.65;;;11.20;92.50;;;;;;5052301;28;20017;-71
2021/04/15 09:20:04;;;;;;;8.85;4.38;;;12.00;89.20;;;;;;5051705;28;20504;-70
2021/04/15 09:23:14;;;;;;;6.38;4.65;;;11.60;85.70;;;;;;5021910;28;20071;-70
2021/04/15 09:26:20;;;;;;;3.97;3.67;;;10.70;86.40;;;;;;5051806;28;20430;-72
2021/04/15 09:29:03;;;;;;;5.72;4.75;;;10.60;86.40;;;;;;5047467;28;20044;-71
2021/04/15 09:31:49;;;;;;;7.30;5.63;;;11.60;90.00;;;;;;5033462;28;20029;-71
2021/04/15 09:34:39;;;;;;;5.78;4.10;;;12.10;80.90;;;;;;5050710;28;20059;-70
2021/04/15 09:37:32;;;;;;;5.05;3.95;;;11.60;82.30;;;;;;5050943;28;20591;-70
2021/04/15 09:40:06;;;;;;;4.82;3.83;;;12.30;84.20;;;;;;5050998;28;20052;-70
2021/04/15 09:42:37;;;;;;;4.13;3.55;;;12.80;77.10;;;;;;5053103;28;20458;-71
2021/04/15 09:45:17;;;;;;;4.25;3.58;;;13.50;76.50;;;;;;5071266;28;20031;-70
2021/04/15 09:48:18;;;;;;;8.35;3.40;;;13.50;72.40;;;;;;5071435;28;20021;-70
2021/04/15 09:51:14;;;;;;;6.53;3.50;;;14.00;78.20;;;;;;5055248;28;20098;-70
2021/04/15 09:54:00;;;;;;;3.88;3.30;;;14.80;75.40;;;;;;5049586;28;20044;-71
2021/04/15 09:56:41;;;;;;;3.92;2.80;;;15.10;70.00;;;;;;5050986;28;20025;-71
2021/04/15 09:59:15;;;;;;;4.13;3.00;;;15.40;66.00;;;;;;5059699;28;20044;-71
2021/04/15 10:01:47;;;;;;;6.18;3.53;;;15.30;63.00;;;;;;5071733;28;20107;-70
2021/04/15 10:04:39;;;;;;;4.78;3.03;;;14.50;62.00;;;;;;5071054;28;20031;-70
2021/04/15 10:07:20;;;;;;;5.38;3.20;;;13.00;65.20;;;;;;5070084;28;20031;-70
2021/04/15 10:10:19;;;;;;;5.67;3.30;;;13.20;66.00;;;;;;5070112;28;20029;-69
2021/04/15 10:13:19;;;;;;;3.13;2.83;;;14.20;68.60;;;;;;5065673;28;20545;-69
2021/04/15 10:16:00;;;;;;;3.90;2.80;;;15.80;61.10;;;;;;5051600;28;20475;-69
2021/04/15 10:18:51;;;;;;;2.88;2.60;;;16.10;59.20;;;;;;5032907;28;20021;-69
2021/04/15 10:21:25;;;;;;;3.58;2.13;;;15.60;57.40;;;;;;5049994;28;20030;-70
2021/04/15 10:24:21;;;;;;;3.58;2.67;;;15.00;59.00;;;;;;5049741;28;20059;-69
2021/04/15 10:27:14;;;;;;;2.97;2.35;;;12.80;60.70;;;;;;5023832;28;20037;-70
2021/04/15 10:29:55;;;;;;;2.97;2.28;;;12.80;60.50;;;;;;5070608;28;20437;-72
2021/04/15 10:32:40;;;;;;;2.55;2.00;;;12.70;63.20;;;;;;5069282;28;20082;-70
2021/04/15 10:35:43;;;;;;;5.05;1.85;;;13.00;60.60;;;;;;5069132;28;20507;-71
2021/04/15 10:38:27;;;;;;;5.35;2.70;;;13.00;61.00;;;;;;5069268;28;20037;-70
2021/04/15 10:41:17;;;;;;;2.88;2.58;;;13.90;62.00;;;;;;5070998;28;20556;-71
2021/04/15 10:43:54;;;;;;;2.60;2.40;;;14.80;58.30;;;;;;5072675;28;20028;-70
2021/04/15 10:46:42;;;;;;;2.60;2.15;;;13.70;63.30;;;;;;5074189;28;20032;-70
2021/04/15 10:49:49;;;;;;;5.65;2.75;;;13.20;61.10;;;;;;5075000;28;20043;-71
2021/04/15 10:52:46;;;;;;;2.88;2.50;;;14.80;61.20;;;;;;4990989;28;20507;-72
2021/04/15 10:55:22;;;;;;;3.05;2.45;;;15.40;56.00;;;;;;4988562;28;20861;-74
2021/04/15 10:57:49;;;;;;;3.47;2.42;;;14.10;56.50;;;;;;5052696;28;20040;-78
2021/04/15 11:00:20;;;;;;;4.00;2.30;;;13.50;58.20;;;;;;5074674;28;20024;-76
2021/04/15 11:02:51;;;;;;;2.97;2.50;;;12.30;59.80;;;;;;5075149;28;20072;-77
2021/04/15 11:05:37;;;;;;;2.75;2.40;;;11.90;62.40;;;;;;5072821;28;20076;-77
2021/04/15 11:08:10;;;;;;;4.57;2.63;;;11.60;63.70;;;;;;5074290;28;20115;-76
2021/04/15 11:10:37;;;;;;;2.45;2.25;;;10.60;65.30;;;;;;5073638;28;20083;-78
2021/04/15 11:13:20;;;;;;;3.47;2.10;;;10.30;67.60;;;;;;5049727;28;20025;-78
2021/04/15 11:15:49;;;;;;;6.00;3.25;;;10.50;65.90;;;;;;5055520;28;20050;-78
2021/04/15 11:18:31;;;;;;;2.28;1.75;;;10.40;63.60;;;;;;5074329;28;20036;-77
2021/04/15 11:21:34;;;;;;;2.70;2.30;;;10.20;63.00;;;;;;5074799;28;20435;-73
2021/04/15 11:24:41;;;;;;;3.85;1.83;;;10.20;64.80;;;;;;5071966;28;20040;-73
2021/04/15 11:27:08;;;;;;;5.15;2.50;;;10.50;63.50;;;;;;5055243;28;20024;-73
2021/04/15 11:29:43;;;;;;;1.90;1.80;;;10.40;62.30;;;;;;5073090;28;20108;-73
2021/04/15 11:32:33;;;;;;;3.35;1.55;;;10.80;63.00;;;;;;5062391;28;20036;-72
2021/04/15 11:35:26;;;;;;;3.33;1.83;;;10.40;59.70;;;;;;5090985;28;20072;-73
2021/04/15 11:38:07;;;;;;;4.20;2.08;;;10.10;61.80;;;;;;5088882;28;20049;-74
2021/04/15 11:40:45;;;;;;;3.63;1.88;;;10.60;63.00;;;;;;5091687;28;20125;-74
2021/04/15 11:43:29;;;;;;;2.22;2.00;;;10.90;64.90;;;;;;5075340;28;20529;-74
2021/04/15 11:46:10;;;;;;;2.42;2.22;;;10.50;65.10;;;;;;5053327;28;20040;-74
2021/04/15 11:48:36;;;;;;;3.95;2.35;;;10.30;68.60;;;;;;5034443;28;20156;-74
2021/04/15 11:51:16;;;;;;;5.05;2.28;;;10.10;68.30;;;;;;5064107;28;20359;-74
2021/04/15 11:53:46;;;;;;;5.32;2.75;;;11.10;67.10;;;;;;5071891;28;20028;-71
2021/04/15 11:56:34;;;;;;;2.95;2.08;;;11.50;66.90;;;;;;5044585;28;20040;-72
2021/04/15 11:59:22;;;;;;;5.30;2.38;;;12.20;64.80;;;;;;5035120;28;20128;-71
2021/04/15 12:01:50;;;;;;;2.70;2.08;;;13.00;63.30;;;;;;5052892;28;20017;-71
2021/04/15 12:04:22;;;;;;;3.60;2.03;;;12.30;61.20;;;;;;5059971;28;20029;-70
2021/04/15 12:06:58;;;;;;;2.47;1.83;;;11.90;61.80;;;;;;5057584;28;20082;-71
2021/04/15 12:09:34;;;;;;;2.10;1.90;;;11.40;62.60;;;;;;5053377;28;20040;-71
2021/04/15 12:12:21;;;;;;;6.07;2.00;;;11.20;62.40;;;;;;5053205;28;20033;-72
2021/04/15 12:14:47;;;;;;;1.67;1.58;;;10.60;61.90;;;;;;5065122;28;20040;-73
2021/04/15 12:17:37;;;;;;;1.70;1.60;;;10.50;62.00;;;;;;5072200;28;20047;-72
2021/04/15 12:20:31;;;;;;;3.83;1.60;;;10.40;59.60;;;;;;5072450;28;20020;-70
2021/04/15 12:23:31;;;;;;;2.95;1.73;;;11.30;58.00;;;;;;4999676;28;20516;-70
2021/04/15 12:26:04;;;;;;;2.28;2.15;;;12.90;57.10;;;;;;5072065;28;20453;-70
2021/04/15 12:28:49;;;;;;;2.10;1.90;;;14.90;54.70;;;;;;5057421;28;20070;-70
2021/04/15 12:31:39;;;;;;;6.68;2.15;;;14.80;53.00;;;;;;5074320;28;20047;-72
2021/04/15 12:34:23;;;;;;;2.33;2.13;;;15.30;54.70;;;;;;5055245;28;20029;-70
2021/04/15 12:37:10;;;;;;;3.38;2.17;;;17.00;52.30;;;;;;5071764;28;20108;-71
2021/04/15 12:40:31;;;;;;;4.70;1.90;;;17.00;51.70;;;;;;5071799;28;20036;-70
2021/04/15 12:43:05;;;;;;;4.90;2.38;;;15.40;53.90;;;;;;5032710;28;20040;-72
2021/04/15 12:45:37;;;;;;;5.72;3.53;;;14.80;56.70;;;;;;5071683;28;20017;-70
2021/04/15 12:48:04;;;;;;;4.47;3.50;;;13.00;58.60;;;;;;5071933;28;20089;-71
2021/04/15 12:50:31;;;;;;;4.40;3.00;;;12.10;61.30;;;;;;5071983;28;20033;-70
2021/04/15 12:52:58;;;;;;;4.85;2.92;;;11.70;61.80;;;;;;5071288;28;20025;-71
2021/04/15 12:55:26;;;;;;;3.17;2.80;;;11.30;62.60;;;;;;5072172;28;20036;-72
2021/04/15 12:57:53;;;;;;;3.08;2.78;;;11.50;62.50;;;;;;5071392;28;20036;-72
2021/04/15 13:00:28;;;;;;;2.35;2.13;;;12.10;60.60;;;;;;5071560;28;20471;-70
2021/04/15 13:03:10;;;;;;;6.20;1.95;;;13.60;58.00;;;;;;5070790;28;20032;-71
2021/04/15 13:05:36;;;;;;;4.75;2.17;;;15.40;54.00;;;;;;5071010;28;20024;-71
2021/04/15 13:08:23;;;;;;;4.63;2.15;;;15.10;55.50;;;;;;5071336;28;20406;-70
2021/04/15 13:10:49;;;;;;;3.38;2.20;;;15.10;54.60;;;;;;5071028;28;20505;-71
2021/04/15 13:13:37;;;;;;;5.80;2.33;;;14.10;56.40;;;;;;5070591;28;20040;-71
2021/04/15 13:16:06;;;;;;;2.40;2.17;;;13.00;57.80;;;;;;5071069;28;20106;-71
2021/04/15 13:18:43;;;;;;;3.70;2.25;;;13.70;57.60;;;;;;5071543;28;20056;-71
2021/04/15 13:21:25;;;;;;;3.55;2.50;;;15.50;55.30;;;;;;5072494;28;20390;-72
2021/04/15 13:23:52;;;;;;;2.42;2.22;;;17.50;49.70;;;;;;5054242;28;20030;-74
2021/04/15 13:26:30;;;;;;;5.30;2.30;;;17.70;50.50;;;;;;5072188;28;20078;-71
2021/04/15 13:29:04;;;;;;;4.30;2.75;;;16.80;52.00;;;;;;5071777;28;20074;-69
2021/04/15 13:31:50;;;;;;;4.68;3.03;;;15.10;54.20;;;;;;5072484;28;20160;-70
2021/04/15 13:34:49;;;;;;;6.28;2.35;;;13.30;57.70;;;;;;5072109;28;20039;-70
2021/04/15 13:37:39;;;;;;;8.98;3.15;;;11.70;60.30;;;;;;5071503;28;20037;-70
2021/04/15 13:40:18;;;;;;;4.20;2.80;;;11.20;66.10;;;;;;5052939;28;20051;-70